Time;durP1;ratioP1;P1;durP2;ratioP2;P2;SDS_P1;SDS_P2;PMS_P1;PMS_P2;Temp;Humidity;BMP_temperature;BMP_pressure;BME280_temperature;BME280_humidity;BME280_pressure;Samples;Min_cycle;Max_cycle;Signal;HPM_P1;HPM_P2
2022/11/07 00:00:54;;;;;;;;;;;;;;;13.71;100.00;98272.63;5040162;28;19924;-47
2022/11/07 00:03:19;;;;;;;;;;;;;;;13.94;100.00;98267.91;5040073;28;19999;-47
2022/11/07 00:05:44;;;;;;;;;;;;;;;13.76;100.00;98285.31;5039834;28;19916;-49
2022/11/07 00:08:09;;;;;;;;;;;;;;;13.32;100.00;98302.38;5037365;28;19924;-47
2022/11/07 00:10:34;;;;;;;;;;;;;;;13.51;100.00;98289.28;5039915;28;19928;-47
2022/11/07 00:13:00;;;;;;;;;;;;;;;13.78;100.00;98284.31;5038466;28;19925;-47
2022/11/07 00:15:25;;;;;;;;;;;;;;;13.73;100.00;98283.75;5038130;28;19924;-47
2022/11/07 00:17:50;;;;;;;;;;;;;;;13.60;100.00;98280.16;5038951;28;19921;-47
2022/11/07 00:20:15;;;;;;;;;;;;;;;13.67;100.00;98280.66;5037525;28;20342;-47
2022/11/07 00:22:40;;;;;;;;;;;;;;;13.59;100.00;98283.66;5038394;28;20515;-46
2022/11/07 00:25:06;;;;;;;;;;;;;;;14.00;100.00;98277.91;5038435;28;19921;-47
2022/11/07 00:27:31;;;;;;;;;;;;;;;13.68;100.00;98290.91;5036766;28;20002;-46
2022/11/07 00:29:56;;;;;;;;;;;;;;;13.48;100.00;98296.34;5036582;28;20370;-48
2022/11/07 00:32:22;;;;;;;;;;;;;;;14.02;100.00;98291.59;5037738;28;20890;-48
2022/11/07 00:34:47;;;;;;;;;;;;;;;13.45;100.00;98296.53;5038395;28;21583;-47
2022/11/07 00:37:12;;;;;;;;;;;;;;;13.70;100.00;98291.66;5038328;28;20366;-47
2022/11/07 00:39:37;;;;;;;;;;;;;;;13.92;100.00;98287.88;5036763;28;19920;-47
2022/11/07 00:42:03;;;;;;;;;;;;;;;14.06;100.00;98280.13;5040027;28;19986;-47
2022/11/07 00:44:28;;;;;;;;;;;;;;;14.12;100.00;98290.16;5042867;28;19921;-46
2022/11/07 00:46:53;;;;;;;;;;;;;;;13.73;100.00;98286.34;5042346;28;19924;-49
2022/11/07 00:49:18;;;;;;;;;;;;;;;13.74;100.00;98287.97;5041583;28;20011;-48
2022/11/07 00:51:44;;;;;;;;;;;;;;;13.98;100.00;98284.91;5042089;28;19988;-46
2022/11/07 00:54:09;;;;;;;;;;;;;;;14.08;100.00;98291.25;5042308;28;20051;-47
2022/11/07 00:56:34;;;;;;;;;;;;;;;13.79;100.00;98296.31;5041863;28;20522;-46
2022/11/07 00:58:59;;;;;;;;;;;;;;;14.07;100.00;98289.59;5041091;28;19928;-48
2022/11/07 01:01:26;;;;;;;;;;;;;;;13.81;100.00;98304.81;5039950;28;19921;-49
2022/11/07 01:06:36;;;;;;;;;;;;;;;13.57;100.00;98299.28;5041909;28;19959;-47
2022/11/07 01:09:02;;;;;;;;;;;;;;;14.11;100.00;98309.19;5043119;28;19917;-47
2022/11/07 01:11:28;;;;;;;;;;;;;;;14.10;100.00;98304.94;5024775;28;19944;-47
2022/11/07 01:13:57;;;;;;;;;;;;;;;13.92;100.00;98306.81;5041760;28;19932;-47
2022/11/07 01:16:22;;;;;;;;;;;;;;;14.49;100.00;98306.13;5041015;28;20369;-47
2022/11/07 01:18:47;;;;;;;;;;;;;;;13.79;100.00;98327.38;5040748;28;19928;-46
2022/11/07 01:21:12;;;;;;;;;;;;;;;13.65;100.00;98334.25;5040915;28;20389;-48
2022/11/07 01:23:38;;;;;;;;;;;;;;;13.81;100.00;98325.53;5040470;28;20526;-47
2022/11/07 01:26:04;;;;;;;;;;;;;;;13.94;100.00;98324.88;5041335;28;19971;-46
2022/11/07 01:28:29;;;;;;;;;;;;;;;13.58;100.00;98341.50;5040869;28;19921;-48
2022/11/07 01:30:55;;;;;;;;;;;;;;;13.94;100.00;98340.41;5041425;28;19955;-46
2022/11/07 01:33:20;;;;;;;;;;;;;;;13.87;100.00;98341.66;5042647;28;19924;-46
2022/11/07 01:35:45;;;;;;;;;;;;;;;13.77;100.00;98354.25;5039133;28;19966;-46
2022/11/07 01:38:10;;;;;;;;;;;;;;;13.62;100.00;98349.94;5040528;28;19917;-46
2022/11/07 01:41:19;;;;;;;;;;;;;;;13.36;100.00;98362.53;5042848;28;19917;-50
2022/11/07 01:43:38;;;;;;;;;;;;;;;13.52;100.00;98355.59;5041123;28;19920;-47
2022/11/07 01:46:03;;;;;;;;;;;;;;;13.59;100.00;98353.50;5039451;28;20415;-47
2022/11/07 01:48:29;;;;;;;;;;;;;;;13.61;100.00;98359.44;5038969;28;19921;-46
2022/11/07 01:50:54;;;;;;;;;;;;;;;13.39;100.00;98370.13;5057513;28;19925;-46
2022/11/07 01:53:19;;;;;;;;;;;;;;;13.77;100.00;98365.44;5039323;28;19925;-46
2022/11/07 01:55:44;;;;;;;;;;;;;;;13.69;100.00;98372.81;5041334;28;19927;-46
2022/11/07 01:58:09;;;;;;;;;;;;;;;13.70;100.00;98364.09;5039477;28;19925;-46
2022/11/07 02:00:35;;;;;;;;;;;;;;;13.48;100.00;98359.28;5040576;28;19935;-46
2022/11/07 02:03:02;;;;;;;;;;;;;;;13.55;100.00;98358.03;5042449;28;19917;-46
2022/11/07 02:05:36;;;;;;;;;;;;;;;13.69;100.00;98352.09;5041166;28;20378;-46
2022/11/07 02:08:02;;;;;;;;;;;;;;;13.56;100.00;98357.09;5039895;28;19925;-46
2022/11/07 02:10:27;;;;;;;;;;;;;;;13.54;100.00;98347.75;5041395;28;20869;-46
2022/11/07 02:12:53;;;;;;;;;;;;;;;13.59;100.00;98346.59;5040832;28;20694;-47
2022/11/07 02:15:18;;;;;;;;;;;;;;;13.57;100.00;98352.75;5041816;28;20491;-47
2022/11/07 02:17:43;;;;;;;;;;;;;;;13.75;100.00;98344.00;5041193;28;19999;-46
2022/11/07 02:20:09;;;;;;;;;;;;;;;13.54;100.00;98351.19;5040259;28;20008;-46
2022/11/07 02:22:34;;;;;;;;;;;;;;;13.64;100.00;98346.34;5040967;28;19961;-46
2022/11/07 02:25:00;;;;;;;;;;;;;;;13.64;100.00;98348.94;5041100;28;20365;-47
2022/11/07 02:27:26;;;;;;;;;;;;;;;13.55;100.00;98349.44;5041520;28;20000;-47
2022/11/07 02:29:53;;;;;;;;;;;;;;;13.69;100.00;98336.56;5037236;28;19924;-46
2022/11/07 02:32:19;;;;;;;;;;;;;;;13.52;100.00;98339.25;5039869;28;19920;-47
2022/11/07 02:34:44;;;;;;;;;;;;;;;13.71;100.00;98328.75;5041818;28;19931;-47
2022/11/07 02:37:15;;;;;;;;;;;;;;;13.77;100.00;98334.38;5040381;28;19925;-47
2022/11/07 02:39:40;;;;;;;;;;;;;;;13.66;100.00;98341.94;5038670;28;19936;-49
2022/11/07 02:42:05;;;;;;;;;;;;;;;13.75;100.00;98325.91;5039833;28;19928;-47
2022/11/07 02:44:31;;;;;;;;;;;;;;;13.12;100.00;98324.09;5041662;28;20560;-49
2022/11/07 02:46:56;;;;;;;;;;;;;;;13.38;100.00;98332.25;5037748;28;21164;-47
2022/11/07 02:49:21;;;;;;;;;;;;;;;13.80;100.00;98334.22;5039907;28;20519;-48
2022/11/07 02:51:46;;;;;;;;;;;;;;;13.24;100.00;98340.72;5040817;28;20416;-48
2022/11/07 02:54:11;;;;;;;;;;;;;;;13.18;100.00;98343.63;5039456;28;19972;-47
2022/11/07 02:56:37;;;;;;;;;;;;;;;13.31;100.00;98352.41;5040297;28;20369;-46
2022/11/07 02:59:02;;;;;;;;;;;;;;;13.69;100.00;98336.56;5040684;28;19971;-46
2022/11/07 03:01:27;;;;;;;;;;;;;;;13.19;100.00;98358.22;5039894;28;19932;-48
2022/11/07 03:03:52;;;;;;;;;;;;;;;13.43;100.00;98345.75;5039021;28;20488;-47
2022/11/07 03:06:19;;;;;;;;;;;;;;;13.92;100.00;98337.06;5040816;28;19921;-47
2022/11/07 03:08:44;;;;;;;;;;;;;;;13.60;100.00;98344.84;5039748;28;19921;-46
2022/11/07 03:11:10;;;;;;;;;;;;;;;13.46;100.00;98340.44;5037995;28;19985;-47
2022/11/07 03:13:35;;;;;;;;;;;;;;;14.12;100.00;98330.75;5039064;28;20346;-49
2022/11/07 03:16:07;;;;;;;;;;;;;;;13.92;100.00;98337.06;5040157;28;20438;-47
2022/11/07 03:18:32;;;;;;;;;;;;;;;14.17;100.00;98332.16;5038404;28;20396;-46
2022/11/07 03:20:58;;;;;;;;;;;;;;;13.90;100.00;98328.53;5039240;28;19925;-48
2022/11/07 03:23:23;;;;;;;;;;;;;;;13.81;100.00;98330.72;5038670;28;19933;-47
2022/11/07 03:25:48;;;;;;;;;;;;;;;13.58;100.00;98341.50;5039198;28;20362;-48
2022/11/07 03:28:13;;;;;;;;;;;;;;;13.96;100.00;98344.56;5039027;28;19920;-47
2022/11/07 03:30:38;;;;;;;;;;;;;;;14.00;100.00;98345.19;5039084;28;19983;-49
2022/11/07 03:33:04;;;;;;;;;;;;;;;13.78;100.00;98356.78;5038700;28;19988;-47
2022/11/07 03:35:29;;;;;;;;;;;;;;;13.91;100.00;98348.31;5039373;28;20039;-46
2022/11/07 03:37:54;;;;;;;;;;;;;;;13.46;100.00;98347.38;5039965;28;20360;-47
2022/11/07 03:40:19;;;;;;;;;;;;;;;13.75;100.00;98351.78;5038059;28;19917;-47
2022/11/07 03:42:45;;;;;;;;;;;;;;;13.71;100.00;98363.22;5039871;28;19920;-47
2022/11/07 03:45:11;;;;;;;;;;;;;;;13.90;100.00;98354.41;5039012;28;19971;-47
2022/11/07 03:47:36;;;;;;;;;;;;;;;13.23;100.00;98374.41;5040087;28;20306;-47
2022/11/07 03:50:02;;;;;;;;;;;;;;;13.62;100.00;98370.66;5037737;28;19931;-47
2022/11/07 03:52:27;;;;;;;;;;;;;;;13.33;100.00;98366.09;5039863;28;20011;-46
2022/11/07 03:54:53;;;;;;;;;;;;;;;13.45;100.00;98367.19;5039055;28;19921;-47
2022/11/07 03:57:18;;;;;;;;;;;;;;;13.25;100.00;98357.91;5039357;28;20035;-49
2022/11/07 03:59:43;;;;;;;;;;;;;;;13.64;100.00;98368.78;5038744;28;19966;-47
2022/11/07 04:02:08;;;;;;;;;;;;;;;13.85;100.00;98377.97;5039423;28;19925;-46
2022/11/07 04:04:34;;;;;;;;;;;;;;;13.75;100.00;98372.47;5039568;28;19927;-49
2022/11/07 04:06:59;;;;;;;;;;;;;;;13.77;100.00;98362.84;5040174;28;19913;-46
2022/11/07 04:09:24;;;;;;;;;;;;;;;13.72;100.00;98362.28;5039285;28;20370;-48
2022/11/07 04:17:17;;;;;;;;;;;;;;;13.45;100.00;98374.13;5038814;28;19924;-49
2022/11/07 04:19:43;;;;;;;;;;;;;;;13.76;100.00;98363.78;5037329;28;20382;-46
2022/11/07 04:22:08;;;;;;;;;;;;;;;14.08;100.00;98363.75;5037870;28;19929;-48
2022/11/07 04:24:33;;;;;;;;;;;;;;;13.52;100.00;98367.69;5038669;28;20698;-47
2022/11/07 04:29:42;;;;;;;;;;;;;;;13.72;100.00;98377.81;5038158;28;19931;-49
2022/11/07 04:32:08;;;;;;;;;;;;;;;14.22;100.00;98381.09;5036861;28;21579;-48
2022/11/07 04:34:33;;;;;;;;;;;;;;;14.11;100.00;98368.72;5038973;28;20643;-49
2022/11/07 04:36:58;;;;;;;;;;;;;;;14.05;100.00;98368.25;5036386;28;19921;-47
2022/11/07 04:39:23;;;;;;;;;;;;;;;13.97;100.00;98369.50;5037182;28;19921;-46
2022/11/07 04:41:49;;;;;;;;;;;;;;;14.14;100.00;98367.72;5038709;28;19955;-52
2022/11/07 04:44:14;;;;;;;;;;;;;;;14.12;100.00;98373.00;5039933;28;19917;-49
2022/11/07 04:46:39;;;;;;;;;;;;;;;14.08;100.00;98365.50;5039948;28;19975;-47
2022/11/07 04:49:04;;;;;;;;;;;;;;;13.58;100.00;98380.31;5038026;28;19917;-46
2022/11/07 04:51:29;;;;;;;;;;;;;;;14.06;100.00;98365.56;5051888;28;19928;-46
2022/11/07 04:53:55;;;;;;;;;;;;;;;13.89;100.00;98376.03;5038366;28;19925;-48
2022/11/07 04:56:20;;;;;;;;;;;;;;;14.01;100.00;98372.78;5039034;28;19928;-46
2022/11/07 04:58:45;;;;;;;;;;;;;;;14.23;100.00;98359.44;5052697;28;19939;-46
2022/11/07 05:01:10;;;;;;;;;;;;;;;14.21;100.00;98356.13;5034738;28;19920;-47
2022/11/07 05:03:36;;;;;;;;;;;;;;;13.87;100.00;98367.53;5029756;28;19921;-47
2022/11/07 05:06:03;;;;;;;;;;;;;;;13.89;100.00;98357.91;5037509;28;19921;-47
2022/11/07 05:08:28;;;;;;;;;;;;;;;14.17;100.00;98352.03;5036474;28;19921;-47
2022/11/07 05:10:53;;;;;;;;;;;;;;;13.92;100.00;98362.94;5035544;28;19925;-48
2022/11/07 05:13:19;;;;;;;;;;;;;;;14.12;100.00;98354.06;5035934;28;19925;-47
2022/11/07 05:15:44;;;;;;;;;;;;;;;14.12;100.00;98354.88;5035438;28;19925;-49
2022/11/07 05:18:09;;;;;;;;;;;;;;;14.46;100.00;98352.09;5036696;28;19936;-49
2022/11/07 05:20:35;;;;;;;;;;;;;;;14.08;100.00;98353.38;5039339;28;20451;-47
2022/11/07 05:23:20;;;;;;;;;;;;;;;13.68;100.00;98365.94;5037121;28;19978;-49
2022/11/07 05:25:47;;;;;;;;;;;;;;;14.09;100.00;98360.22;5039099;28;19919;-47
2022/11/07 05:28:14;;;;;;;;;;;;;;;13.65;100.00;98363.53;5037704;28;19921;-48
2022/11/07 05:30:40;;;;;;;;;;;;;;;13.75;100.00;98361.25;5053748;28;19921;-47
2022/11/07 05:33:06;;;;;;;;;;;;;;;13.91;100.00;98361.25;5041385;28;19927;-47
2022/11/07 05:35:31;;;;;;;;;;;;;;;13.88;100.00;98357.09;5041821;28;19967;-49
2022/11/07 05:37:57;;;;;;;;;;;;;;;13.93;100.00;98359.41;5042327;28;19960;-49
2022/11/07 05:40:22;;;;;;;;;;;;;;;13.55;100.00;98358.03;5039521;28;19963;-47
2022/11/07 05:42:47;;;;;;;;;;;;;;;13.67;100.00;98359.13;5041331;28;20032;-46
2022/11/07 05:45:12;;;;;;;;;;;;;;;13.99;100.00;98369.44;5040099;28;19931;-47
2022/11/07 05:47:37;;;;;;;;;;;;;;;13.89;100.00;98371.72;5042867;28;20826;-48
2022/11/07 05:50:03;;;;;;;;;;;;;;;14.15;100.00;98370.25;5040722;28;20460;-48
2022/11/07 05:52:28;;;;;;;;;;;;;;;13.54;100.00;98378.81;5041199;28;20449;-47
2022/11/07 05:54:53;;;;;;;;;;;;;;;13.27;100.00;98371.56;5041099;28;19920;-48
2022/11/07 05:57:18;;;;;;;;;;;;;;;13.14;100.00;98380.91;5037305;28;19925;-47
2022/11/07 05:59:44;;;;;;;;;;;;;;;13.57;100.00;98381.22;5039186;28;19969;-47
2022/11/07 06:02:09;;;;;;;;;;;;;;;13.50;100.00;98382.47;5038263;28;19929;-46
2022/11/07 06:04:34;;;;;;;;;;;;;;;13.96;100.00;98382.56;5041321;28;19986;-47
2022/11/07 06:07:00;;;;;;;;;;;;;;;13.56;100.00;98382.16;5041543;28;19946;-47
2022/11/07 06:09:25;;;;;;;;;;;;;;;13.44;100.00;98396.59;5040152;28;19925;-47
2022/11/07 06:11:50;;;;;;;;;;;;;;;13.66;100.00;98388.50;5056581;28;19916;-47
2022/11/07 06:14:15;;;;;;;;;;;;;;;13.65;100.00;98392.00;5039911;28;19924;-47
2022/11/07 06:16:40;;;;;;;;;;;;;;;13.25;100.00;98388.94;5042104;28;19917;-46
2022/11/07 06:19:06;;;;;;;;;;;;;;;13.67;100.00;98397.09;5040919;28;19924;-46
2022/11/07 06:21:31;;;;;;;;;;;;;;;13.88;100.00;98393.31;5041473;28;19924;-46
2022/11/07 06:23:56;;;;;;;;;;;;;;;13.68;100.00;98391.81;5040559;28;19958;-46
2022/11/07 06:26:21;;;;;;;;;;;;;;;13.77;100.00;98399.06;5041107;28;19928;-49
2022/11/07 06:28:47;;;;;;;;;;;;;;;13.56;100.00;98402.84;5040936;28;20435;-50
2022/11/07 06:31:12;;;;;;;;;;;;;;;13.83;100.00;98399.69;5041288;28;19917;-48
2022/11/07 06:33:37;;;;;;;;;;;;;;;13.56;100.00;98416.59;5038084;28;20360;-46
2022/11/07 06:36:06;;;;;;;;;;;;;;;13.86;100.00;98409.84;5041665;28;20289;-49
2022/11/07 06:38:31;;;;;;;;;;;;;;;13.87;100.00;98412.38;5040611;28;19999;-47
2022/11/07 06:41:02;;;;;;;;;;;;;;;14.12;100.00;98401.50;5038962;28;20446;-47
2022/11/07 06:43:27;;;;;;;;;;;;;;;14.15;100.00;98409.06;5040149;28;19916;-49
2022/11/07 06:45:53;;;;;;;;;;;;;;;13.85;100.00;98403.03;5038352;28;20281;-48
2022/11/07 06:48:18;;;;;;;;;;;;;;;13.66;100.00;98419.56;5038216;28;20451;-49
2022/11/07 06:50:43;;;;;;;;;;;;;;;13.61;100.00;98411.19;5039332;28;20718;-46
2022/11/07 06:53:09;;;;;;;;;;;;;;;14.03;100.00;98412.38;5038811;28;20423;-49
2022/11/07 06:55:35;;;;;;;;;;;;;;;13.77;100.00;98421.53;5023210;28;20058;-49
2022/11/07 06:58:00;;;;;;;;;;;;;;;13.69;100.00;98413.38;5040132;28;19996;-46
2022/11/07 07:00:29;;;;;;;;;;;;;;;13.46;100.00;98423.19;5040993;28;19974;-47
2022/11/07 07:02:54;;;;;;;;;;;;;;;13.88;100.00;98420.97;5037077;28;20065;-49
2022/11/07 07:05:20;;;;;;;;;;;;;;;13.91;100.00;98423.38;5039649;28;20007;-47
2022/11/07 07:07:45;;;;;;;;;;;;;;;13.65;100.00;98420.47;5040065;28;19917;-46
2022/11/07 07:10:10;;;;;;;;;;;;;;;13.76;100.00;98414.72;5054416;28;19927;-48
2022/11/07 07:12:35;;;;;;;;;;;;;;;13.86;100.00;98425.38;5039854;28;19940;-47
2022/11/07 07:15:01;;;;;;;;;;;;;;;14.06;100.00;98432.06;5038764;28;19921;-47
2022/11/07 07:17:26;;;;;;;;;;;;;;;13.94;100.00;98424.06;5037875;28;20446;-46
2022/11/07 07:19:51;;;;;;;;;;;;;;;13.76;100.00;98441.41;5040035;28;19925;-46
2022/11/07 07:22:17;;;;;;;;;;;;;;;13.83;100.00;98428.97;5041084;28;19965;-48
2022/11/07 07:24:42;;;;;;;;;;;;;;;14.11;100.00;98424.88;5038662;28;19921;-47
2022/11/07 07:27:07;;;;;;;;;;;;;;;14.26;100.00;98424.03;5038647;28;19921;-47
2022/11/07 07:29:32;;;;;;;;;;;;;;;14.51;100.00;98412.28;5038162;28;20019;-47
2022/11/07 07:31:57;;;;;;;;;;;;;;;14.20;100.00;98426.94;5040329;28;20011;-49
2022/11/07 07:34:23;;;;;;;;;;;;;;;14.35;100.00;98428.69;5040015;28;19999;-50
2022/11/07 07:36:48;;;;;;;;;;;;;;;14.19;100.00;98423.53;5038205;28;19920;-47
2022/11/07 07:39:13;;;;;;;;;;;;;;;14.10;100.00;98426.63;5037336;28;20370;-50
2022/11/07 07:41:38;;;;;;;;;;;;;;;14.35;100.00;98420.09;5039883;28;20705;-47
2022/11/07 07:44:04;;;;;;;;;;;;;;;14.78;100.00;98425.41;5037514;28;19917;-46
2022/11/07 07:46:29;;;;;;;;;;;;;;;14.20;100.00;98430.38;5036781;28;19932;-47
2022/11/07 07:48:54;;;;;;;;;;;;;;;14.81;100.00;98415.69;5039231;28;19932;-46
2022/11/07 07:51:20;;;;;;;;;;;;;;;14.64;100.00;98424.47;5040331;28;19917;-47
2022/11/07 07:53:45;;;;;;;;;;;;;;;14.66;100.00;98426.13;5034816;28;19963;-46
2022/11/07 07:56:10;;;;;;;;;;;;;;;14.64;100.00;98429.66;5039728;28;20485;-47
2022/11/07 07:58:36;;;;;;;;;;;;;;;15.06;100.00;98429.81;5038865;28;20002;-47
2022/11/07 08:01:02;;;;;;;;;;;;;;;14.99;100.00;98426.75;5039838;28;20286;-47
2022/11/07 08:03:27;;;;;;;;;;;;;;;15.20;100.00;98418.59;5037192;28;19916;-48
2022/11/07 08:05:53;;;;;;;;;;;;;;;15.00;100.00;98430.16;5037646;28;19920;-48
2022/11/07 08:08:18;;;;;;;;;;;;;;;15.02;100.00;98434.31;5039144;28;20366;-46
2022/11/07 08:10:44;;;;;;;;;;;;;;;15.01;100.00;98435.25;5038501;28;19928;-47
2022/11/07 08:13:10;;;;;;;;;;;;;;;14.98;100.00;98438.03;5040315;28;19920;-46
2022/11/07 08:15:35;;;;;;;;;;;;;;;15.07;100.00;98431.47;5040760;28;19920;-47
2022/11/07 08:18:01;;;;;;;;;;;;;;;14.99;100.00;98447.47;5039293;28;19928;-46
2022/11/07 08:20:26;;;;;;;;;;;;;;;14.92;100.00;98451.38;5039120;28;19921;-48
2022/11/07 08:22:58;;;;;;;;;;;;;;;15.17;100.00;98453.34;5039823;28;19943;-47
2022/11/07 08:25:23;;;;;;;;;;;;;;;14.96;100.00;98455.44;5040786;28;19916;-46
2022/11/07 08:27:49;;;;;;;;;;;;;;;15.41;100.00;98455.38;5040400;28;20035;-48
2022/11/07 08:30:14;;;;;;;;;;;;;;;14.94;100.00;98446.94;5038380;28;19917;-46
2022/11/07 08:32:39;;;;;;;;;;;;;;;15.36;100.00;98458.25;5040112;28;20610;-46
2022/11/07 08:35:05;;;;;;;;;;;;;;;15.48;100.00;98462.69;5040652;28;19917;-47
2022/11/07 08:37:30;;;;;;;;;;;;;;;15.80;100.00;98451.31;5039423;28;20058;-49
2022/11/07 08:39:55;;;;;;;;;;;;;;;15.69;100.00;98449.31;5039459;28;19913;-49
2022/11/07 08:42:20;;;;;;;;;;;;;;;15.34;100.00;98469.66;5039846;28;19913;-47
2022/11/07 08:44:45;;;;;;;;;;;;;;;15.39;100.00;98447.69;5040792;28;19916;-49
2022/11/07 08:47:11;;;;;;;;;;;;;;;15.78;100.00;98464.41;5039487;28;19924;-47
2022/11/07 08:49:36;;;;;;;;;;;;;;;15.40;100.00;98469.28;5039009;28;19916;-47
2022/11/07 08:52:01;;;;;;;;;;;;;;;15.98;100.00;98465.72;5039132;28;20519;-47
2022/11/07 08:54:29;;;;;;;;;;;;;;;15.70;100.00;98466.59;5040720;28;20336;-47
2022/11/07 08:56:54;;;;;;;;;;;;;;;15.31;100.00;98472.44;5040077;28;19970;-49
2022/11/07 08:59:20;;;;;;;;;;;;;;;15.45;100.00;98488.00;5039551;28;19917;-47
2022/11/07 09:01:45;;;;;;;;;;;;;;;15.34;100.00;98475.66;5038805;28;19985;-47
2022/11/07 09:04:11;;;;;;;;;;;;;;;15.18;100.00;98480.09;5039825;28;20004;-47
2022/11/07 09:06:36;;;;;;;;;;;;;;;15.19;100.00;98493.00;5043590;28;20347;-46
2022/11/07 09:09:01;;;;;;;;;;;;;;;15.42;100.00;98483.84;5043622;28;20497;-49
2022/11/07 09:11:26;;;;;;;;;;;;;;;15.89;100.00;98481.88;5042680;28;19916;-46
2022/11/07 09:13:52;;;;;;;;;;;;;;;15.97;100.00;98469.28;5043704;28;19925;-48
2022/11/07 09:16:18;;;;;;;;;;;;;;;15.76;100.00;98466.25;5043539;28;20401;-48
2022/11/07 09:18:43;;;;;;;;;;;;;;;16.02;100.00;98471.59;5043592;28;19912;-48
2022/11/07 09:21:09;;;;;;;;;;;;;;;16.46;100.00;98470.50;5043120;28;19916;-47
2022/11/07 09:23:34;;;;;;;;;;;;;;;15.77;100.00;98480.88;5043207;28;19952;-50
2022/11/07 09:25:59;;;;;;;;;;;;;;;16.02;100.00;98481.97;5043743;28;19990;-49
2022/11/07 09:28:25;;;;;;;;;;;;;;;15.73;100.00;98479.41;5040880;28;19921;-47
2022/11/07 09:30:53;;;;;;;;;;;;;;;15.82;100.00;98489.22;5043413;28;20359;-47
2022/11/07 09:33:19;;;;;;;;;;;;;;;16.82;100.00;98482.91;5042864;28;19916;-49
2022/11/07 09:35:44;;;;;;;;;;;;;;;16.73;100.00;98484.31;5043817;28;19924;-47
2022/11/07 09:38:09;;;;;;;;;;;;;;;16.58;100.00;98480.13;5042244;28;20019;-49
2022/11/07 09:40:50;;;;;;;;;;;;;;;16.90;100.00;98472.84;5041061;28;19987;-47
2022/11/07 09:43:22;;;;;;;;;;;;;;;16.54;100.00;98499.44;5042940;28;19916;-49
2022/11/07 09:45:57;;;;;;;;;;;;;;;17.34;100.00;98481.19;5042304;28;19946;-48
2022/11/07 09:48:22;;;;;;;;;;;;;;;17.05;100.00;98483.97;5040512;28;19921;-50
2022/11/07 09:50:48;;;;;;;;;;;;;;;16.42;100.00;98500.22;5042707;28;19923;-48
2022/11/07 09:53:19;;;;;;;;;;;;;;;17.01;100.00;98492.91;5042945;28;19999;-49
2022/11/07 09:55:51;;;;;;;;;;;;;;;17.62;100.00;98487.09;5043345;28;19916;-51
2022/11/07 09:58:26;;;;;;;;;;;;;;;17.13;100.00;98492.13;5029105;28;19999;-48
2022/11/07 10:00:59;;;;;;;;;;;;;;;16.81;100.00;98503.78;5043075;28;19917;-47
2022/11/07 10:03:24;;;;;;;;;;;;;;;16.88;100.00;98510.28;5045039;28;19917;-48
2022/11/07 10:05:49;;;;;;;;;;;;;;;17.03;100.00;98511.03;5041801;28;19963;-48
2022/11/07 10:08:14;;;;;;;;;;;;;;;16.63;100.00;98517.03;5041735;28;19916;-48
2022/11/07 10:10:45;;;;;;;;;;;;;;;16.21;100.00;98531.81;5042775;28;19998;-49
2022/11/07 10:13:14;;;;;;;;;;;;;;;16.64;100.00;98528.28;5040586;28;20102;-48
2022/11/07 10:15:48;;;;;;;;;;;;;;;15.79;100.00;98533.56;5041672;28;19920;-48
2022/11/07 10:18:19;;;;;;;;;;;;;;;15.61;100.00;98545.03;5041825;28;19932;-49
2022/11/07 10:20:51;;;;;;;;;;;;;;;16.69;100.00;98545.25;5043008;28;19916;-50
2022/11/07 10:23:21;;;;;;;;;;;;;;;16.21;100.00;98550.00;5042297;28;20401;-50
2022/11/07 10:25:51;;;;;;;;;;;;;;;15.81;100.00;98551.66;5041677;28;20018;-47
2022/11/07 10:28:18;;;;;;;;;;;;;;;16.09;100.00;98553.38;5040151;28;19918;-50
2022/11/07 10:30:44;;;;;;;;;;;;;;;15.98;100.00;98542.81;5041479;28;19913;-47
2022/11/07 10:33:28;;;;;;;;;;;;;;;16.31;100.00;98558.91;5041755;28;20393;-47
2022/11/07 10:35:55;;;;;;;;;;;;;;;16.63;100.00;98548.25;5057487;28;19945;-48
2022/11/07 10:38:22;;;;;;;;;;;;;;;16.50;100.00;98545.59;5041939;28;19992;-47
2022/11/07 10:40:47;;;;;;;;;;;;;;;16.40;100.00;98538.47;5044517;28;19943;-46
2022/11/07 10:43:15;;;;;;;;;;;;;;;16.97;100.00;98533.09;5041942;28;19917;-48
2022/11/07 10:45:40;;;;;;;;;;;;;;;16.36;100.00;98543.03;5040284;28;20332;-47
2022/11/07 10:48:05;;;;;;;;;;;;;;;16.80;100.00;98535.94;5040141;28;19947;-50
2022/11/07 10:50:30;;;;;;;;;;;;;;;16.25;100.00;98535.91;5041414;28;19917;-47
2022/11/07 10:53:00;;;;;;;;;;;;;;;16.19;100.00;98545.84;5042015;28;19923;-48
2022/11/07 10:55:26;;;;;;;;;;;;;;;16.43;100.00;98539.13;5041351;28;19956;-48
2022/11/07 10:57:53;;;;;;;;;;;;;;;17.15;100.00;98531.03;5040081;28;19962;-47
2022/11/07 11:00:23;;;;;;;;;;;;;;;16.60;100.00;98545.00;5039750;28;20428;-50
2022/11/07 11:02:48;;;;;;;;;;;;;;;16.24;100.00;98543.81;5040558;28;19924;-49
2022/11/07 11:05:21;;;;;;;;;;;;;;;15.72;100.00;98552.22;5041182;28;19917;-48
2022/11/07 11:07:47;;;;;;;;;;;;;;;16.23;100.00;98553.34;5040971;28;19928;-49
2022/11/07 11:10:17;;;;;;;;;;;;;;;16.18;100.00;98555.41;5040644;28;20780;-48
2022/11/07 11:12:44;;;;;;;;;;;;;;;16.39;100.00;98555.81;5055898;28;20344;-47
2022/11/07 11:15:10;;;;;;;;;;;;;;;16.42;100.00;98562.59;5041704;28;20539;-49
2022/11/07 11:17:35;;;;;;;;;;;;;;;16.09;100.00;98561.19;5041088;28;20019;-48
2022/11/07 11:20:00;;;;;;;;;;;;;;;16.13;100.00;98552.28;5040773;28;20003;-51
2022/11/07 11:22:27;;;;;;;;;;;;;;;16.14;100.00;98572.09;5040185;28;19986;-50
2022/11/07 11:25:11;;;;;;;;;;;;;;;16.53;100.00;98565.34;5039713;28;20008;-48
2022/11/07 11:27:37;;;;;;;;;;;;;;;16.62;100.00;98564.75;5040804;28;20366;-48
2022/11/07 11:30:28;;;;;;;;;;;;;;;16.33;100.00;98553.63;5039289;28;19921;-49
2022/11/07 11:32:53;;;;;;;;;;;;;;;16.12;100.00;98560.97;5039592;28;19921;-51
2022/11/07 11:35:22;;;;;;;;;;;;;;;16.71;100.00;98550.34;5041174;28;19913;-50
2022/11/07 11:37:49;;;;;;;;;;;;;;;16.17;100.00;98561.53;5040797;28;19917;-49
2022/11/07 11:40:18;;;;;;;;;;;;;;;16.60;100.00;98561.41;5038337;28;19975;-48
2022/11/07 11:43:04;;;;;;;;;;;;;;;16.43;100.00;98561.69;5039717;28;19917;-48
2022/11/07 11:45:34;;;;;;;;;;;;;;;16.49;100.00;98554.31;5038747;28;20404;-48
2022/11/07 11:47:59;;;;;;;;;;;;;;;16.38;100.00;98561.13;5039985;28;20557;-50
2022/11/07 11:50:30;;;;;;;;;;;;;;;16.90;100.00;98552.59;5040208;28;19917;-49
2022/11/07 11:52:55;;;;;;;;;;;;;;;16.99;100.00;98554.63;5040310;28;19917;-51
2022/11/07 11:55:21;;;;;;;;;;;;;;;16.30;100.00;98549.44;5040503;28;19917;-49
2022/11/07 11:57:54;;;;;;;;;;;;;;;16.73;100.00;98556.28;5040581;28;20436;-51
2022/11/07 12:00:20;;;;;;;;;;;;;;;16.38;100.00;98542.94;5038187;28;20012;-49
2022/11/07 12:02:53;;;;;;;;;;;;;;;16.83;100.00;98543.53;5037509;28;20007;-51
2022/11/07 12:05:18;;;;;;;;;;;;;;;16.90;100.00;98547.41;5038845;28;19991;-51
2022/11/07 12:07:47;;;;;;;;;;;;;;;17.13;100.00;98530.31;5040364;28;20054;-54
2022/11/07 12:10:26;;;;;;;;;;;;;;;16.71;100.00;98529.53;5038897;28;20099;-50
2022/11/07 12:12:55;;;;;;;;;;;;;;;16.48;100.00;98534.44;5038853;28;19966;-50
2022/11/07 12:15:39;;;;;;;;;;;;;;;16.75;100.00;98527.59;5045474;28;19947;-50
2022/11/07 12:18:04;;;;;;;;;;;;;;;17.19;100.00;98511.66;5040407;28;19939;-52
2022/11/07 12:20:42;;;;;;;;;;;;;;;16.98;100.00;98519.13;5039966;28;20523;-51
2022/11/07 12:23:16;;;;;;;;;;;;;;;16.84;100.00;98527.84;5040037;28;19917;-48
2022/11/07 12:25:54;;;;;;;;;;;;;;;16.98;100.00;98519.13;5040352;28;19917;-52
2022/11/07 12:28:22;;;;;;;;;;;;;;;17.42;100.00;98510.13;5039267;28;19912;-51
2022/11/07 12:30:50;;;;;;;;;;;;;;;17.48;100.00;98503.69;5039621;28;20027;-51
2022/11/07 12:33:22;;;;;;;;;;;;;;;17.38;100.00;98515.63;5040061;28;19960;-52
2022/11/07 12:35:50;;;;;;;;;;;;;;;17.29;100.00;98506.69;5038644;28;19919;-52
2022/11/07 12:38:38;;;;;;;;;;;;;;;17.35;100.00;98511.47;5042521;28;19921;-51
2022/11/07 12:41:11;;;;;;;;;;;;;;;17.59;100.00;98515.97;5035931;28;20708;-51
2022/11/07 12:43:53;;;;;;;;;;;;;;;17.30;100.00;98518.75;5045755;28;19948;-52